createdAt,value
2022-10-17T00:03:53.397Z,100782.69
2022-10-17T00:08:33.765Z,100788.22
2022-10-17T00:13:16.991Z,100793.00
2022-10-17T00:17:58.863Z,100787.28
2022-10-17T00:22:39.268Z,100785.72
2022-10-17T00:27:19.821Z,100779.81
2022-10-17T00:31:59.926Z,100791.09
2022-10-17T00:36:41.955Z,100766.28
2022-10-17T00:41:24.696Z,100781.28
2022-10-17T00:46:04.905Z,100779.13
2022-10-17T00:50:49.954Z,100773.03
2022-10-17T00:55:34.736Z,100776.84
2022-10-17T01:00:16.824Z,100779.34
2022-10-17T01:04:59.478Z,100784.66
2022-10-17T01:09:40.559Z,100788.94
2022-10-17T01:14:30.836Z,100792.19
2022-10-17T01:19:36.891Z,100787.28
2022-10-17T01:24:42.834Z,100785.94
2022-10-17T01:29:48.329Z,100782.84
2022-10-17T01:34:36.028Z,100778.16
2022-10-17T01:39:26.948Z,100765.81
2022-10-17T01:44:14.515Z,100761.13
2022-10-17T01:48:56.829Z,100754.66
2022-10-17T01:53:43.211Z,100763.63
2022-10-17T01:58:30.023Z,100759.91
2022-10-17T02:03:13.932Z,100755.69
2022-10-17T02:07:54.124Z,100751.09
2022-10-17T02:13:02.678Z,100758.06
2022-10-17T02:17:48.026Z,100756.28
2022-10-17T02:22:39.350Z,100750.63
2022-10-17T02:27:27.335Z,100753.53
2022-10-17T02:32:13.381Z,100746.94
2022-10-17T02:36:59.282Z,100747.53
2022-10-17T02:41:41.379Z,100748.88
2022-10-17T02:46:24.609Z,100741.69
2022-10-17T02:51:13.874Z,100735.31
2022-10-17T02:55:58.989Z,100731.94
2022-10-17T03:00:41.370Z,100738.53
2022-10-17T03:05:24.407Z,100742.75
2022-10-17T03:10:07.483Z,100748.94
2022-10-17T03:14:47.749Z,100752.78
2022-10-17T03:19:28.327Z,100752.91
2022-10-17T03:24:08.981Z,100762.69
2022-10-17T03:28:53.617Z,100762.78
2022-10-17T03:33:34.738Z,100774.72
2022-10-17T03:38:14.763Z,100774.00
2022-10-17T03:42:54.882Z,100764.75
2022-10-17T03:47:36.601Z,100766.06
2022-10-17T03:52:16.928Z,100780.28
2022-10-17T04:01:37.911Z,100781.19
2022-10-17T04:06:19.851Z,100780.94
2022-10-17T04:11:00.461Z,100773.50
2022-10-17T04:15:41.220Z,100773.78
2022-10-17T04:20:21.255Z,100774.53
2022-10-17T04:25:02.494Z,100772.41
2022-10-17T04:29:44.089Z,100787.25
2022-10-17T04:34:24.727Z,100782.34
2022-10-17T04:39:05.983Z,100781.28
2022-10-17T04:43:51.039Z,100782.94
2022-10-17T04:48:32.673Z,100793.91
2022-10-17T04:53:12.868Z,100792.25
2022-10-17T04:57:53.748Z,100806.81
2022-10-17T05:02:35.403Z,100817.69
2022-10-17T05:07:15.730Z,100824.03
2022-10-17T05:11:56.333Z,100824.75
2022-10-17T05:16:36.884Z,100821.34
2022-10-17T05:21:19.176Z,100836.84
2022-10-17T05:25:59.789Z,100832.25
2022-10-17T05:30:40.130Z,100832.94
2022-10-17T05:35:20.754Z,100824.56
2022-10-17T05:40:02.201Z,100819.53
2022-10-17T05:44:42.253Z,100830.31
2022-10-17T05:49:32.649Z,100823.50
2022-10-17T05:54:20.827Z,100820.59
2022-10-17T05:59:03.012Z,100826.09
2022-10-17T06:03:43.431Z,100826.09
2022-10-17T06:08:24.035Z,100827.19
2022-10-17T06:13:04.252Z,100829.00
2022-10-17T06:17:46.103Z,100835.88
2022-10-17T06:22:26.839Z,100836.16
2022-10-17T06:27:11.035Z,100849.88
2022-10-17T06:31:53.195Z,100859.66
2022-10-17T06:36:34.714Z,100878.13
2022-10-17T06:41:16.317Z,100885.13
2022-10-17T06:50:38.021Z,100879.91
2022-10-17T06:55:22.764Z,100889.84
2022-10-17T07:00:04.059Z,100888.81
2022-10-17T07:04:46.779Z,100875.31
2022-10-17T07:09:27.862Z,100879.78
2022-10-17T07:14:09.321Z,100878.06
2022-10-17T07:18:50.847Z,100873.00
2022-10-17T07:23:31.823Z,100873.09
2022-10-17T07:28:12.082Z,100871.47
2022-10-17T07:32:55.665Z,100884.16
2022-10-17T07:37:35.571Z,100881.53
2022-10-17T07:42:15.743Z,100884.72
2022-10-17T07:46:55.859Z,100888.00
2022-10-17T07:51:37.470Z,100879.97
2022-10-17T07:56:18.085Z,100871.06
2022-10-17T08:05:47.354Z,100892.47
2022-10-17T08:10:29.813Z,100895.06
2022-10-17T08:15:11.638Z,100889.97
2022-10-17T08:19:52.382Z,100907.06
2022-10-17T08:24:32.560Z,100935.19
2022-10-17T08:29:15.839Z,100930.81
2022-10-17T08:33:56.221Z,100940.91
2022-10-17T08:38:41.430Z,100961.59
2022-10-17T08:43:37.022Z,100971.88
2022-10-17T08:48:22.525Z,100973.94
2022-10-17T08:53:07.317Z,100967.88
2022-10-17T08:57:49.577Z,100968.19
2022-10-17T09:02:40.438Z,100962.09
2022-10-17T09:07:30.037Z,100978.94
2022-10-17T09:12:18.933Z,100990.50
2022-10-17T09:17:12.257Z,100995.53
2022-10-17T09:21:57.539Z,101009.78
2022-10-17T09:26:41.494Z,101010.84
2022-10-17T09:31:27.005Z,101020.31
2022-10-17T09:36:13.101Z,101028.03
2022-10-17T09:40:57.967Z,101024.78
2022-10-17T09:45:47.177Z,101033.06
2022-10-17T09:50:30.090Z,101035.91
2022-10-17T09:55:19.552Z,101037.69
2022-10-17T10:00:02.765Z,101041.22
2022-10-17T10:05:10.047Z,101063.38
2022-10-17T10:09:51.735Z,101075.16
2022-10-17T10:14:34.467Z,101054.47
2022-10-17T10:19:22.528Z,101048.38
2022-10-17T10:24:13.896Z,101055.34
2022-10-17T10:29:01.002Z,101058.06
2022-10-17T10:33:46.983Z,101063.53
2022-10-17T10:38:30.783Z,101063.66
2022-10-17T10:43:24.303Z,101038.63
2022-10-17T10:48:14.202Z,101023.50
2022-10-17T10:53:08.852Z,101053.09
2022-10-17T10:57:50.826Z,101056.66
2022-10-17T11:02:39.353Z,101052.78
2022-10-17T11:07:25.187Z,101066.38
2022-10-17T11:12:11.453Z,101089.75
2022-10-17T11:17:00.564Z,101093.38
2022-10-17T11:21:48.123Z,101096.00
2022-10-17T11:26:31.725Z,101100.47
2022-10-17T11:31:15.602Z,101117.03
2022-10-17T11:36:01.179Z,101118.34
2022-10-17T11:40:46.887Z,101120.09
2022-10-17T11:45:30.551Z,101129.84
2022-10-17T11:55:25.786Z,101159.75
2022-10-17T12:00:32.661Z,101145.22
2022-10-17T12:05:23.842Z,101151.09
2022-10-17T12:10:17.757Z,101145.34
2022-10-17T12:15:29.837Z,101154.09
2022-10-17T12:20:28.419Z,101143.56
2022-10-17T12:25:20.349Z,101151.81
2022-10-17T12:30:01.958Z,101126.44
2022-10-17T12:34:53.165Z,101128.84
2022-10-17T12:39:51.778Z,101139.69
2022-10-17T12:44:39.207Z,101149.31
2022-10-17T12:49:54.449Z,101166.84
2022-10-17T12:54:53.570Z,101168.47
2022-10-17T12:59:44.550Z,101171.06
2022-10-17T13:04:25.866Z,101177.72
2022-10-17T13:09:17.154Z,101197.06
2022-10-17T13:14:00.272Z,101200.38
2022-10-17T13:18:40.959Z,101210.91
2022-10-17T13:23:24.025Z,101214.50
2022-10-17T13:28:13.112Z,101214.25
2022-10-17T13:32:53.229Z,101212.13
2022-10-17T13:37:33.375Z,101211.78
2022-10-17T13:42:22.693Z,101221.22
2022-10-17T13:47:04.422Z,101223.38
2022-10-17T13:51:46.648Z,101233.13
2022-10-17T13:56:30.507Z,101242.50
2022-10-17T14:01:16.573Z,101248.84
2022-10-17T14:06:13.467Z,101249.56
2022-10-17T14:10:53.812Z,101240.19
2022-10-17T14:15:36.799Z,101260.47
2022-10-17T14:25:32.475Z,101290.91
2022-10-17T14:35:42.083Z,101315.09
2022-10-17T14:40:25.276Z,101312.66
2022-10-17T14:45:10.034Z,101320.41
2022-10-17T14:49:51.841Z,101333.56
2022-10-17T14:54:36.228Z,101346.53
2022-10-17T14:59:30.094Z,101362.97
2022-10-17T15:04:19.869Z,101359.59
2022-10-17T15:09:00.239Z,101374.63
2022-10-17T15:13:45.438Z,101394.53
2022-10-17T15:18:25.945Z,101420.06
2022-10-17T15:23:07.635Z,101434.69
2022-10-17T15:27:47.847Z,101450.72
2022-10-17T15:32:28.466Z,101447.34
2022-10-17T15:37:17.603Z,101459.47
2022-10-17T15:41:59.182Z,101466.19
2022-10-17T15:46:42.183Z,101465.84
2022-10-17T15:51:23.575Z,101468.97
2022-10-17T15:56:06.076Z,101458.47
2022-10-17T16:00:48.982Z,101496.41
2022-10-17T16:05:29.338Z,101499.50
2022-10-17T16:10:10.964Z,101495.97
2022-10-17T16:14:50.987Z,101500.00
2022-10-17T16:19:32.404Z,101495.41
2022-10-17T16:24:13.816Z,101488.28
2022-10-17T16:28:55.027Z,101471.25
2022-10-17T16:33:35.680Z,101454.38
2022-10-17T16:38:17.314Z,101465.91
2022-10-17T16:42:57.276Z,101506.34
2022-10-17T16:47:37.237Z,101511.97
2022-10-17T16:52:17.681Z,101520.78
2022-10-17T16:56:59.068Z,101517.75
2022-10-17T17:01:39.613Z,101513.50
2022-10-17T17:06:22.594Z,101518.50
2022-10-17T17:11:03.107Z,101526.03
2022-10-17T17:20:25.707Z,101521.47
2022-10-17T17:25:07.229Z,101517.72
2022-10-17T17:29:48.094Z,101513.72
2022-10-17T17:34:29.869Z,101516.09
2022-10-17T17:39:13.857Z,101525.97
2022-10-17T17:43:54.855Z,101538.72
2022-10-17T17:48:37.618Z,101541.97
2022-10-17T17:53:19.514Z,101535.56
2022-10-17T17:58:00.173Z,101539.19
2022-10-17T18:02:42.273Z,101536.66
2022-10-17T18:07:25.135Z,101547.09
2022-10-17T18:12:07.145Z,101548.84
2022-10-17T18:16:47.465Z,101549.91
2022-10-17T18:21:28.201Z,101563.94
2022-10-17T18:26:08.615Z,101559.47
2022-10-17T18:30:50.715Z,101568.88
2022-10-17T18:35:31.135Z,101559.72
2022-10-17T18:40:12.261Z,101567.84
2022-10-17T18:44:52.955Z,101576.22
2022-10-17T18:49:35.728Z,101579.59
2022-10-17T18:54:20.615Z,101584.34
2022-10-17T18:59:00.610Z,101575.47
2022-10-17T19:03:40.750Z,101582.72
2022-10-17T19:08:22.371Z,101583.22
2022-10-17T19:13:02.549Z,101590.91
2022-10-17T19:17:43.386Z,101592.66
2022-10-17T19:22:23.786Z,101591.59
2022-10-17T19:27:06.953Z,101592.78
2022-10-17T19:31:48.550Z,101594.94
2022-10-17T19:36:33.654Z,101595.56
2022-10-17T19:41:16.062Z,101601.75
2022-10-17T19:45:58.903Z,101601.31
2022-10-17T19:50:41.345Z,101604.13
2022-10-17T19:55:21.694Z,101609.00
2022-10-17T20:00:01.644Z,101604.75
2022-10-17T20:04:54.345Z,101605.19
2022-10-17T20:09:43.593Z,101598.44
2022-10-17T20:14:23.905Z,101605.69
2022-10-17T20:19:06.428Z,101597.81
2022-10-17T20:23:48.554Z,101596.34
2022-10-17T20:28:29.737Z,101611.19
2022-10-17T20:33:09.860Z,101612.25
2022-10-17T20:37:50.637Z,101613.31
2022-10-17T20:42:32.518Z,101615.44
2022-10-17T20:47:26.487Z,101625.03
2022-10-17T20:52:13.611Z,101620.78
2022-10-17T20:56:55.388Z,101614.63
2022-10-17T21:01:36.141Z,101606.19
2022-10-17T21:06:18.070Z,101619.31
2022-10-17T21:11:08.240Z,101629.47
2022-10-17T21:15:48.187Z,101629.91
2022-10-17T21:20:29.595Z,101626.94
2022-10-17T21:25:10.451Z,101635.41
2022-10-17T21:29:50.575Z,101630.97
2022-10-17T21:34:31.551Z,101632.47
2022-10-17T21:39:14.384Z,101624.19
2022-10-17T21:43:55.726Z,101633.53
2022-10-17T21:48:36.363Z,101626.94
2022-10-17T21:53:16.791Z,101638.59
2022-10-17T21:57:58.271Z,101629.91
2022-10-17T22:02:38.620Z,101632.44
2022-10-17T22:07:18.963Z,101642.00
2022-10-17T22:11:59.268Z,101651.09
2022-10-17T22:16:41.195Z,101646.88
2022-10-17T22:21:23.319Z,101657.47
2022-10-17T22:26:03.946Z,101659.19
2022-10-17T22:30:44.422Z,101654.94
2022-10-17T22:35:26.096Z,101652.56
2022-10-17T22:40:07.239Z,101664.03
2022-10-17T22:44:47.878Z,101673.16
2022-10-17T22:49:28.014Z,101665.53
2022-10-17T22:54:09.477Z,101674.66
2022-10-17T22:58:50.301Z,101667.25
2022-10-17T23:03:31.876Z,101672.75
2022-10-17T23:08:13.089Z,101665.13
2022-10-17T23:12:54.499Z,101675.53
2022-10-17T23:17:34.983Z,101667.69
2022-10-17T23:22:15.214Z,101666.84
2022-10-17T23:26:55.414Z,101668.75
2022-10-17T23:31:37.446Z,101670.00
2022-10-17T23:36:19.599Z,101671.06
2022-10-17T23:41:00.153Z,101672.13
2022-10-17T23:50:27.231Z,101665.97
2022-10-17T23:55:08.858Z,101666.63
2022-10-17T23:59:48.938Z,101666.63
